Time;durP1;ratioP1;P1;durP2;ratioP2;P2;SDS_P1;SDS_P2;PMS_P1;PMS_P2;Temp;Humidity;BMP_temperature;BMP_pressure;BME280_temperature;BME280_humidity;BME280_pressure;Samples;Min_cycle;Max_cycle;Signal;HPM_P1;HPM_P2
2021/12/10 00:00:22;;;;;;;;;;;;;;;;;;5080209;28;19928;-70
2021/12/10 00:02:52;;;;;;;;;;;;;;;;;;5087496;28;20247;-71
2021/12/10 00:05:24;;;;;;;;;;;;;;;;;;5084248;28;19932;-70
2021/12/10 00:07:55;;;;;;;;;;;;;;;;;;5087241;28;19928;-70
2021/12/10 00:10:31;;;;;;;;;;;;;;;;;;5085904;28;19927;-70
2021/12/10 00:13:01;;;;;;;;;;;;;;;;;;5086611;28;19931;-70
2021/12/10 00:15:30;;;;;;;;;;;;;;;;;;5084912;28;19938;-70
2021/12/10 00:17:59;;;;;;;;;;;;;;;;;;5084909;28;20364;-71
2021/12/10 00:20:28;;;;;;;;;;;;;;;;;;5085001;28;19928;-70
2021/12/10 00:23:02;;;;;;;;;;;;;;;;;;5094136;28;19925;-70
2021/12/10 00:25:35;;;;;;;;;;;;;;;;;;5085623;28;19932;-70
2021/12/10 00:28:13;;;;;;;;;;;;;;;;;;5076465;28;19925;-70
2021/12/10 00:30:58;;;;;;;;;;;;;;;;;;5086684;28;20460;-71
2021/12/10 00:33:28;;;;;;;;;;;;;;;;;;5073974;28;20504;-71
2021/12/10 00:35:58;;;;;;;;;;;;;;;;;;5087774;28;20329;-70
2021/12/10 00:38:33;;;;;;;;;;;;;;;;;;5093569;28;19935;-70
2021/12/10 00:41:03;;;;;;;;;;;;;;;;;;5082003;28;19925;-70
2021/12/10 00:43:33;;;;;;;;;;;;;;;;;;5085949;28;19928;-70
2021/12/10 00:46:03;;;;;;;;;;;;;;;;;;5062387;28;19928;-70
2021/12/10 00:48:31;;;;;;;;;;;;;;;;;;5089853;28;19955;-70
2021/12/10 00:51:01;;;;;;;;;;;;;;;;;;5083714;28;19927;-69
2021/12/10 00:53:32;;;;;;;;;;;;;;;;;;5082550;28;19927;-70
2021/12/10 00:56:02;;;;;;;;;;;;;;;;;;5088042;28;19981;-70
2021/12/10 00:58:30;;;;;;;;;;;;;;;;;;5085636;28;19928;-70
2021/12/10 01:01:01;;;;;;;;;;;;;;;;;;5081877;28;19924;-70
2021/12/10 01:03:32;;;;;;;;;;;;;;;;;;5087096;28;19940;-70
2021/12/10 01:06:03;;;;;;;;;;;;;;;;;;5083529;28;20381;-70
2021/12/10 01:08:34;;;;;;;;;;;;;;;;;;5085450;28;19928;-70
2021/12/10 01:11:03;;;;;;;;;;;;;;;;;;5081768;28;19939;-69
2021/12/10 01:13:33;;;;;;;;;;;;;;;;;;5084350;28;19928;-70
2021/12/10 01:27:31;;;;;;;;;;;;;;;;;;5078955;28;19928;-71
2021/12/10 01:30:09;;;;;;;;;;;;;;;;;;5080003;28;19924;-70
2021/12/10 01:32:38;;;;;;;;;;;;;;;;;;5085498;28;19959;-71
2021/12/10 01:35:08;;;;;;;;;;;;;;;;;;5089392;28;19976;-70
2021/12/10 01:37:37;;;;;;;;;;;;;;;;;;5085227;28;19924;-70
2021/12/10 01:40:07;;;;;;;;;;;;;;;;;;5082323;28;19981;-70
2021/12/10 01:42:47;;;;;;;;;;;;;;;;;;5081416;28;19932;-70
2021/12/10 01:45:20;;;;;;;;;;;;;;;;;;5082064;28;19924;-70
2021/12/10 01:48:08;;;;;;;;;;;;;;;;;;5082438;28;20174;-70
2021/12/10 01:50:38;;;;;;;;;;;;;;;;;;5077657;28;19924;-70
2021/12/10 01:53:08;;;;;;;;;;;;;;;;;;5081293;28;20258;-69
2021/12/10 01:55:36;;;;;;;;;;;;;;;;;;5080732;28;20251;-69
2021/12/10 01:58:12;;;;;;;;;;;;;;;;;;5078470;28;19932;-70
2021/12/10 02:00:40;;;;;;;;;;;;;;;;;;5075447;28;19931;-70
2021/12/10 02:03:10;;;;;;;;;;;;;;;;;;5082753;28;19930;-70
2021/12/10 02:05:41;;;;;;;;;;;;;;;;;;5082974;28;19924;-70
2021/12/10 02:08:13;;;;;;;;;;;;;;;;;;5081894;28;19932;-70
2021/12/10 02:10:42;;;;;;;;;;;;;;;;;;5083797;28;20008;-70
2021/12/10 02:13:12;;;;;;;;;;;;;;;;;;5082221;28;19935;-70
2021/12/10 02:15:43;;;;;;;;;;;;;;;;;;5088358;28;19931;-70
2021/12/10 02:18:12;;;;;;;;;;;;;;;;;;5078195;28;19936;-70
2021/12/10 02:20:45;;;;;;;;;;;;;;;;;;5082594;28;19967;-70
2021/12/10 02:23:29;;;;;;;;;;;;;;;;;;5085231;28;20326;-70
2021/12/10 02:26:01;;;;;;;;;;;;;;;;;;5080313;28;19928;-70
2021/12/10 02:28:32;;;;;;;;;;;;;;;;;;5070809;28;19928;-70
2021/12/10 02:31:08;;;;;;;;;;;;;;;;;;5084099;28;20353;-70
2021/12/10 02:33:39;;;;;;;;;;;;;;;;;;5087955;28;19947;-70
2021/12/10 02:36:11;;;;;;;;;;;;;;;;;;5082904;28;19942;-70
2021/12/10 02:38:41;;;;;;;;;;;;;;;;;;5088732;28;19925;-70
2021/12/10 02:41:10;;;;;;;;;;;;;;;;;;5081583;28;20265;-70
2021/12/10 02:43:41;;;;;;;;;;;;;;;;;;5079614;28;20437;-70
2021/12/10 02:46:10;;;;;;;;;;;;;;;;;;5081329;28;20381;-70
2021/12/10 02:48:40;;;;;;;;;;;;;;;;;;5088279;28;19941;-70
2021/12/10 02:51:11;;;;;;;;;;;;;;;;;;5084480;28;19924;-70
2021/12/10 02:53:45;;;;;;;;;;;;;;;;;;5084089;28;19938;-70
2021/12/10 02:56:16;;;;;;;;;;;;;;;;;;5080377;28;19989;-70
2021/12/10 02:58:46;;;;;;;;;;;;;;;;;;5089516;28;19928;-71
2021/12/10 03:01:16;;;;;;;;;;;;;;;;;;5074185;28;20016;-70
2021/12/10 03:03:43;;;;;;;;;;;;;;;;;;5086941;28;19928;-70
2021/12/10 03:06:23;;;;;;;;;;;;;;;;;;5077040;28;19924;-70
2021/12/10 03:08:52;;;;;;;;;;;;;;;;;;5084352;28;19932;-70
2021/12/10 03:11:20;;;;;;;;;;;;;;;;;;5084148;28;19935;-70
2021/12/10 03:13:51;;;;;;;;;;;;;;;;;;5088377;28;19924;-70
2021/12/10 03:16:20;;;;;;;;;;;;;;;;;;5059758;28;19932;-70
2021/12/10 03:18:51;;;;;;;;;;;;;;;;;;5087886;28;19935;-69
2021/12/10 03:21:22;;;;;;;;;;;;;;;;;;5079287;28;20261;-70
2021/12/10 03:23:51;;;;;;;;;;;;;;;;;;5083452;28;19935;-70
2021/12/10 03:26:21;;;;;;;;;;;;;;;;;;5084956;28;19949;-70
2021/12/10 03:28:48;;;;;;;;;;;;;;;;;;5083440;28;19932;-70
2021/12/10 03:31:18;;;;;;;;;;;;;;;;;;5086746;28;19981;-70
2021/12/10 03:33:47;;;;;;;;;;;;;;;;;;5087010;28;19932;-70
2021/12/10 03:36:16;;;;;;;;;;;;;;;;;;5083613;28;19925;-70
2021/12/10 03:38:59;;;;;;;;;;;;;;;;;;5087347;28;19954;-70
2021/12/10 03:41:30;;;;;;;;;;;;;;;;;;5083279;28;20305;-70
2021/12/10 03:44:00;;;;;;;;;;;;;;;;;;5083571;28;19938;-70
2021/12/10 03:46:31;;;;;;;;;;;;;;;;;;5085622;28;19977;-70
2021/12/10 03:49:03;;;;;;;;;;;;;;;;;;5083087;28;19928;-70
2021/12/10 03:51:33;;;;;;;;;;;;;;;;;;5087478;28;20506;-70
2021/12/10 03:54:01;;;;;;;;;;;;;;;;;;5082571;28;19932;-70
2021/12/10 03:56:30;;;;;;;;;;;;;;;;;;5088281;28;19927;-70
2021/12/10 03:59:00;;;;;;;;;;;;;;;;;;5084385;28;19931;-69
2021/12/10 04:01:31;;;;;;;;;;;;;;;;;;5087747;28;19981;-69
2021/12/10 04:04:00;;;;;;;;;;;;;;;;;;5083369;28;19923;-70
2021/12/10 04:06:30;;;;;;;;;;;;;;;;;;5076381;28;19939;-70
2021/12/10 04:09:01;;;;;;;;;;;;;;;;;;5083329;28;19955;-70
2021/12/10 04:11:31;;;;;;;;;;;;;;;;;;5085285;28;19947;-70
2021/12/10 04:13:59;;;;;;;;;;;;;;;;;;5085234;28;19924;-70
2021/12/10 04:16:30;;;;;;;;;;;;;;;;;;5084427;28;19928;-69
2021/12/10 04:18:57;;;;;;;;;;;;;;;;;;5084442;28;19930;-69
2021/12/10 04:21:29;;;;;;;;;;;;;;;;;;5086585;28;20480;-69
2021/12/10 04:23:57;;;;;;;;;;;;;;;;;;5085007;28;19924;-69
2021/12/10 04:26:28;;;;;;;;;;;;;;;;;;5084374;28;19938;-70
2021/12/10 04:28:56;;;;;;;;;;;;;;;;;;5082312;28;20034;-70
2021/12/10 04:31:26;;;;;;;;;;;;;;;;;;5084848;28;19928;-70
2021/12/10 04:33:56;;;;;;;;;;;;;;;;;;5086550;28;20030;-70
2021/12/10 04:36:27;;;;;;;;;;;;;;;;;;5078945;28;20322;-70
2021/12/10 04:38:58;;;;;;;;;;;;;;;;;;5074551;28;19935;-70
2021/12/10 04:41:27;;;;;;;;;;;;;;;;;;5084793;28;20362;-70
2021/12/10 04:43:54;;;;;;;;;;;;;;;;;;5093564;28;19927;-70
2021/12/10 04:46:29;;;;;;;;;;;;;;;;;;5082159;28;19928;-70
2021/12/10 04:49:00;;;;;;;;;;;;;;;;;;5080829;28;19976;-69
2021/12/10 04:51:33;;;;;;;;;;;;;;;;;;5086325;28;19928;-69
2021/12/10 04:54:02;;;;;;;;;;;;;;;;;;5080945;28;19935;-69
2021/12/10 04:56:34;;;;;;;;;;;;;;;;;;5084655;28;19928;-69
2021/12/10 04:59:04;;;;;;;;;;;;;;;;;;5087239;28;19961;-69
2021/12/10 05:01:36;;;;;;;;;;;;;;;;;;5068744;28;20003;-69
2021/12/10 05:04:07;;;;;;;;;;;;;;;;;;5079230;28;19939;-69
2021/12/10 05:06:38;;;;;;;;;;;;;;;;;;5077497;28;20153;-69
2021/12/10 05:09:06;;;;;;;;;;;;;;;;;;5084933;28;19932;-69
2021/12/10 05:11:36;;;;;;;;;;;;;;;;;;5078728;28;19924;-70
2021/12/10 05:14:06;;;;;;;;;;;;;;;;;;5094921;28;19924;-70
2021/12/10 05:16:41;;;;;;;;;;;;;;;;;;5078584;28;19924;-71
2021/12/10 05:19:20;;;;;;;;;;;;;;;;;;5085650;28;19932;-70
2021/12/10 05:21:51;;;;;;;;;;;;;;;;;;5064389;28;19925;-70
2021/12/10 05:24:20;;;;;;;;;;;;;;;;;;5083951;28;20549;-70
2021/12/10 05:26:53;;;;;;;;;;;;;;;;;;5084942;28;19943;-70
2021/12/10 05:29:24;;;;;;;;;;;;;;;;;;5089558;28;19928;-70
2021/12/10 05:31:56;;;;;;;;;;;;;;;;;;5084421;28;19935;-69
2021/12/10 05:34:30;;;;;;;;;;;;;;;;;;5085434;28;20734;-69
2021/12/10 05:37:00;;;;;;;;;;;;;;;;;;5084336;28;20055;-69
2021/12/10 05:39:37;;;;;;;;;;;;;;;;;;5057261;28;20412;-69
2021/12/10 05:42:05;;;;;;;;;;;;;;;;;;5043443;28;19924;-69
2021/12/10 05:44:32;;;;;;;;;;;;;;;;;;5060326;28;19942;-69
2021/12/10 05:47:06;;;;;;;;;;;;;;;;;;5064587;28;19925;-69
2021/12/10 05:49:33;;;;;;;;;;;;;;;;;;5060547;28;19924;-69
2021/12/10 05:52:05;;;;;;;;;;;;;;;;;;5062659;28;19924;-69
2021/12/10 05:54:36;;;;;;;;;;;;;;;;;;5051665;28;19924;-69
2021/12/10 05:57:07;;;;;;;;;;;;;;;;;;5052338;28;20303;-69
2021/12/10 05:59:37;;;;;;;;;;;;;;;;;;5057655;28;19924;-69
2021/12/10 06:02:07;;;;;;;;;;;;;;;;;;5062684;28;20526;-69
2021/12/10 06:04:38;;;;;;;;;;;;;;;;;;5057378;28;19935;-69
2021/12/10 06:07:08;;;;;;;;;;;;;;;;;;5062794;28;19925;-70
2021/12/10 06:09:39;;;;;;;;;;;;;;;;;;5054375;28;19932;-70
2021/12/10 06:12:06;;;;;;;;;;;;;;;;;;5061264;28;20006;-70
2021/12/10 06:14:36;;;;;;;;;;;;;;;;;;5061194;28;19929;-69
2021/12/10 06:17:06;;;;;;;;;;;;;;;;;;5052303;28;20352;-69
2021/12/10 06:19:38;;;;;;;;;;;;;;;;;;5056059;28;20020;-69
2021/12/10 06:22:13;;;;;;;;;;;;;;;;;;5052195;28;19928;-69
2021/12/10 06:24:43;;;;;;;;;;;;;;;;;;5061481;28;19934;-70
2021/12/10 06:27:14;;;;;;;;;;;;;;;;;;5058451;28;20514;-70
2021/12/10 06:29:42;;;;;;;;;;;;;;;;;;5062079;28;19931;-70
2021/12/10 06:32:09;;;;;;;;;;;;;;;;;;5061714;28;19924;-70
2021/12/10 06:34:39;;;;;;;;;;;;;;;;;;5063763;28;19948;-69
2021/12/10 06:37:07;;;;;;;;;;;;;;;;;;5062658;28;20399;-69
2021/12/10 06:39:34;;;;;;;;;;;;;;;;;;5063392;28;19925;-69
2021/12/10 06:42:05;;;;;;;;;;;;;;;;;;5054368;28;19963;-70
2021/12/10 06:44:43;;;;;;;;;;;;;;;;;;5064016;28;20282;-69
2021/12/10 06:47:15;;;;;;;;;;;;;;;;;;5069718;28;19935;-69
2021/12/10 06:49:44;;;;;;;;;;;;;;;;;;5069730;28;19936;-69
2021/12/10 06:52:11;;;;;;;;;;;;;;;;;;5060712;28;19931;-69
2021/12/10 06:54:40;;;;;;;;;;;;;;;;;;5068389;28;19954;-70
2021/12/10 06:57:10;;;;;;;;;;;;;;;;;;5068521;28;19985;-69
2021/12/10 06:59:41;;;;;;;;;;;;;;;;;;5067217;28;19924;-69
2021/12/10 07:02:08;;;;;;;;;;;;;;;;;;5064724;28;19932;-69
2021/12/10 07:04:41;;;;;;;;;;;;;;;;;;5070514;28;20257;-69
2021/12/10 07:07:13;;;;;;;;;;;;;;;;;;5066777;28;19966;-66
2021/12/10 07:09:45;;;;;;;;;;;;;;;;;;5068665;28;20558;-69
2021/12/10 07:12:14;;;;;;;;;;;;;;;;;;5057785;28;19935;-69
2021/12/10 07:14:45;;;;;;;;;;;;;;;;;;5059463;28;19925;-69
2021/12/10 07:17:15;;;;;;;;;;;;;;;;;;5066964;28;19928;-70
2021/12/10 07:19:46;;;;;;;;;;;;;;;;;;5068152;28;19939;-70
2021/12/10 07:22:14;;;;;;;;;;;;;;;;;;5073356;28;19932;-72
2021/12/10 07:24:45;;;;;;;;;;;;;;;;;;5059799;28;19981;-73
2021/12/10 07:27:13;;;;;;;;;;;;;;;;;;5076686;28;20023;-70
2021/12/10 07:29:43;;;;;;;;;;;;;;;;;;5063860;28;19924;-70
2021/12/10 07:32:18;;;;;;;;;;;;;;;;;;5074214;28;20025;-69
2021/12/10 07:34:48;;;;;;;;;;;;;;;;;;5058744;28;19925;-70
2021/12/10 07:37:16;;;;;;;;;;;;;;;;;;5077846;28;19924;-70
2021/12/10 07:39:47;;;;;;;;;;;;;;;;;;5087344;28;19924;-69
2021/12/10 07:42:18;;;;;;;;;;;;;;;;;;5078028;28;20020;-71
2021/12/10 07:44:47;;;;;;;;;;;;;;;;;;5081463;28;20386;-69
2021/12/10 07:47:20;;;;;;;;;;;;;;;;;;5088290;28;20253;-70
2021/12/10 07:49:49;;;;;;;;;;;;;;;;;;5088434;28;20335;-70
2021/12/10 07:52:24;;;;;;;;;;;;;;;;;;5081820;28;19932;-69
2021/12/10 07:54:55;;;;;;;;;;;;;;;;;;5088310;28;19932;-69
2021/12/10 07:57:27;;;;;;;;;;;;;;;;;;5083038;28;19931;-69
2021/12/10 07:59:55;;;;;;;;;;;;;;;;;;5071617;28;19931;-70
2021/12/10 08:02:26;;;;;;;;;;;;;;;;;;5087185;28;19932;-72
2021/12/10 08:04:57;;;;;;;;;;;;;;;;;;5081681;28;19924;-70
2021/12/10 08:07:27;;;;;;;;;;;;;;;;;;5085748;28;19947;-70
2021/12/10 08:09:58;;;;;;;;;;;;;;;;;;5080347;28;20000;-69
2021/12/10 08:12:28;;;;;;;;;;;;;;;;;;5085532;28;19938;-68
2021/12/10 08:14:59;;;;;;;;;;;;;;;;;;5084928;28;19931;-69
2021/12/10 08:17:27;;;;;;;;;;;;;;;;;;5069585;28;19933;-70
2021/12/10 08:20:00;;;;;;;;;;;;;;;;;;5075383;28;19947;-70
2021/12/10 08:22:42;;;;;;;;;;;;;;;;;;5070376;28;19994;-70
2021/12/10 08:25:12;;;;;;;;;;;;;;;;;;5080284;28;19924;-73
2021/12/10 08:27:49;;;;;;;;;;;;;;;;;;5084267;28;20025;-72
2021/12/10 08:30:18;;;;;;;;;;;;;;;;;;5082982;28;20506;-71
2021/12/10 08:32:48;;;;;;;;;;;;;;;;;;5087365;28;19924;-70
2021/12/10 08:35:23;;;;;;;;;;;;;;;;;;5088987;28;20417;-70
2021/12/10 08:37:51;;;;;;;;;;;;;;;;;;5057932;28;19936;-70
2021/12/10 08:40:24;;;;;;;;;;;;;;;;;;5055770;28;19924;-71
2021/12/10 08:42:56;;;;;;;;;;;;;;;;;;5053081;28;19924;-71
2021/12/10 08:45:26;;;;;;;;;;;;;;;;;;5064282;28;19924;-70
2021/12/10 08:47:57;;;;;;;;;;;;;;;;;;5066799;28;19928;-69
2021/12/10 08:50:29;;;;;;;;;;;;;;;;;;5061174;28;20381;-69
2021/12/10 08:53:21;;;;;;;;;;;;;;;;;;5064308;28;19924;-70
2021/12/10 08:55:50;;;;;;;;;;;;;;;;;;5054868;28;20327;-70
2021/12/10 08:58:19;;;;;;;;;;;;;;;;;;5059262;28;19932;-70
2021/12/10 09:00:49;;;;;;;;;;;;;;;;;;5062213;28;19933;-71
2021/12/10 09:03:33;;;;;;;;;;;;;;;;;;5062418;28;19925;-72
2021/12/10 09:06:01;;;;;;;;;;;;;;;;;;5058736;28;19937;-73
2021/12/10 09:08:35;;;;;;;;;;;;;;;;;;5063270;28;19970;-71
2021/12/10 09:11:06;;;;;;;;;;;;;;;;;;5038164;28;19924;-74
2021/12/10 09:13:34;;;;;;;;;;;;;;;;;;5062720;28;20202;-72
2021/12/10 09:16:05;;;;;;;;;;;;;;;;;;5063362;28;20541;-73
2021/12/10 09:18:38;;;;;;;;;;;;;;;;;;5064759;28;20405;-73
2021/12/10 09:21:08;;;;;;;;;;;;;;;;;;5059732;28;19924;-72
2021/12/10 09:23:38;;;;;;;;;;;;;;;;;;5058814;28;20315;-71
2021/12/10 09:26:08;;;;;;;;;;;;;;;;;;5057288;28;19934;-71
2021/12/10 09:28:42;;;;;;;;;;;;;;;;;;5064289;28;19924;-73
2021/12/10 09:31:13;;;;;;;;;;;;;;;;;;5057593;28;19947;-73
2021/12/10 09:33:43;;;;;;;;;;;;;;;;;;5060120;28;20374;-72
2021/12/10 09:36:15;;;;;;;;;;;;;;;;;;5059229;28;20574;-72
2021/12/10 09:38:49;;;;;;;;;;;;;;;;;;5050075;28;22333;-74
2021/12/10 09:41:18;;;;;;;;;;;;;;;;;;5063003;28;19932;-69
2021/12/10 09:43:49;;;;;;;;;;;;;;;;;;5065645;28;19939;-72
2021/12/10 09:46:17;;;;;;;;;;;;;;;;;;5058656;28;19954;-73
2021/12/10 09:48:50;;;;;;;;;;;;;;;;;;5082089;28;19924;-72
2021/12/10 09:51:18;;;;;;;;;;;;;;;;;;5061662;28;19928;-71
2021/12/10 09:53:46;;;;;;;;;;;;;;;;;;5059516;28;19951;-71
2021/12/10 09:56:17;;;;;;;;;;;;;;;;;;5063726;28;20412;-73
2021/12/10 09:58:50;;;;;;;;;;;;;;;;;;5065411;28;19936;-72
2021/12/10 10:01:19;;;;;;;;;;;;;;;;;;5077660;28;19999;-69
2021/12/10 10:04:01;;;;;;;;;;;;;;;;;;5086731;28;20420;-72
2021/12/10 10:06:30;;;;;;;;;;;;;;;;;;5080824;28;19964;-71
2021/12/10 10:09:00;;;;;;;;;;;;;;;;;;5075717;28;20365;-71
2021/12/10 10:11:49;;;;;;;;;;;;;;;;;;5062131;28;19935;-71
2021/12/10 10:14:23;;;;;;;;;;;;;;;;;;5042734;28;19968;-72
2021/12/10 10:16:51;;;;;;;;;;;;;;;;;;5059014;28;19932;-72
2021/12/10 10:19:22;;;;;;;;;;;;;;;;;;5082094;28;19931;-73
2021/12/10 10:21:50;;;;;;;;;;;;;;;;;;5070395;28;20004;-74
2021/12/10 10:24:21;;;;;;;;;;;;;;;;;;5075707;28;19924;-75
2021/12/10 10:26:52;;;;;;;;;;;;;;;;;;5071457;28;20079;-75
2021/12/10 10:29:29;;;;;;;;;;;;;;;;;;5074008;28;19928;-75
2021/12/10 10:32:00;;;;;;;;;;;;;;;;;;5080966;28;19939;-75
2021/12/10 10:34:31;;;;;;;;;;;;;;;;;;5077589;28;19929;-75
2021/12/10 10:37:03;;;;;;;;;;;;;;;;;;5081357;28;20008;-75
2021/12/10 10:39:33;;;;;;;;;;;;;;;;;;5092686;28;19928;-75
2021/12/10 10:42:15;;;;;;;;;;;;;;;;;;5101253;28;19977;-75
2021/12/10 10:44:55;;;;;;;;;;;;;;;;;;5087836;28;20269;-75
2021/12/10 10:47:24;;;;;;;;;;;;;;;;;;5100952;28;20027;-75
2021/12/10 10:49:54;;;;;;;;;;;;;;;;;;5089811;28;19924;-75
2021/12/10 10:52:29;;;;;;;;;;;;;;;;;;5090495;28;19928;-76
2021/12/10 10:54:58;;;;;;;;;;;;;;;;;;5096559;28;19936;-75
2021/12/10 10:57:26;;;;;;;;;;;;;;;;;;5082882;28;20376;-75
2021/12/10 10:59:58;;;;;;;;;;;;;;;;;;5098248;28;20011;-75
2021/12/10 11:02:26;;;;;;;;;;;;;;;;;;5095321;28;19924;-75
2021/12/10 11:04:56;;;;;;;;;;;;;;;;;;5074693;28;19943;-75
2021/12/10 11:07:25;;;;;;;;;;;;;;;;;;5097212;28;19979;-76
2021/12/10 11:09:55;;;;;;;;;;;;;;;;;;5095695;28;19939;-76
2021/12/10 11:12:31;;;;;;;;;;;;;;;;;;5091105;28;19932;-75
2021/12/10 11:15:05;;;;;;;;;;;;;;;;;;5091515;28;20396;-75
2021/12/10 11:17:34;;;;;;;;;;;;;;;;;;5089678;28;19954;-74
2021/12/10 11:20:02;;;;;;;;;;;;;;;;;;5090992;28;19924;-75
2021/12/10 11:22:33;;;;;;;;;;;;;;;;;;5088322;28;19950;-75
2021/12/10 11:25:05;;;;;;;;;;;;;;;;;;5093919;28;19941;-75
2021/12/10 11:27:34;;;;;;;;;;;;;;;;;;5102348;28;19924;-74
2021/12/10 11:30:02;;;;;;;;;;;;;;;;;;5084037;28;20241;-72
2021/12/10 11:32:34;;;;;;;;;;;;;;;;;;5075093;28;19935;-76
2021/12/10 11:35:03;;;;;;;;;;;;;;;;;;5094036;28;19932;-77
2021/12/10 11:37:45;;;;;;;;;;;;;;;;;;5100255;28;20031;-74
2021/12/10 11:40:14;;;;;;;;;;;;;;;;;;5057902;28;19931;-75
2021/12/10 11:42:48;;;;;;;;;;;;;;;;;;5067947;28;19995;-76
2021/12/10 11:45:30;;;;;;;;;;;;;;;;;;5061820;28;20419;-76
2021/12/10 11:48:13;;;;;;;;;;;;;;;;;;5054564;28;20369;-76
2021/12/10 11:50:40;;;;;;;;;;;;;;;;;;5057007;28;19924;-78
2021/12/10 11:53:23;;;;;;;;;;;;;;;;;;5067590;28;20027;-77
2021/12/10 11:55:54;;;;;;;;;;;;;;;;;;5066701;28;19926;-73
2021/12/10 11:58:21;;;;;;;;;;;;;;;;;;5066373;28;20169;-75
2021/12/10 12:00:51;;;;;;;;;;;;;;;;;;5065367;28;19961;-76
2021/12/10 12:03:23;;;;;;;;;;;;;;;;;;5065450;28;19943;-67
2021/12/10 12:05:55;;;;;;;;;;;;;;;;;;5066134;28;19928;-70
2021/12/10 12:08:24;;;;;;;;;;;;;;;;;;5076839;28;19934;-69
2021/12/10 12:11:00;;;;;;;;;;;;;;;;;;5069268;28;19935;-68
2021/12/10 12:13:57;;;;;;;;;;;;;;;;;;5072435;28;19940;-69
2021/12/10 12:16:42;;;;;;;;;;;;;;;;;;5065722;28;19924;-67
2021/12/10 12:19:18;;;;;;;;;;;;;;;;;;5068215;28;19929;-67
2021/12/10 12:21:57;;;;;;;;;;;;;;;;;;5063659;28;19924;-69
2021/12/10 12:27:20;;;;;;;;;;;;;;;;;;5066003;28;19924;-70
2021/12/10 12:30:10;;;;;;;;;;;;;;;;;;5060119;28;19925;-67
2021/12/10 12:33:00;;;;;;;;;;;;;;;;;;5056194;28;19935;-67
2021/12/10 12:35:29;;;;;;;;;;;;;;;;;;5062497;28;19928;-67
2021/12/10 12:38:08;;;;;;;;;;;;;;;;;;5070552;28;19950;-68
2021/12/10 12:41:00;;;;;;;;;;;;;;;;;;5083877;28;20014;-68
2021/12/10 12:43:30;;;;;;;;;;;;;;;;;;5087503;28;19932;-69
2021/12/10 12:46:05;;;;;;;;;;;;;;;;;;5083807;28;19928;-68
2021/12/10 12:48:37;;;;;;;;;;;;;;;;;;5088239;28;19924;-69
2021/12/10 12:51:19;;;;;;;;;;;;;;;;;;5086151;28;19932;-69
2021/12/10 12:53:52;;;;;;;;;;;;;;;;;;5067749;28;19931;-68
2021/12/10 12:56:21;;;;;;;;;;;;;;;;;;5078577;28;19935;-70
2021/12/10 12:59:09;;;;;;;;;;;;;;;;;;5072381;28;19924;-70
2021/12/10 13:01:40;;;;;;;;;;;;;;;;;;5086199;28;20005;-67
2021/12/10 13:04:12;;;;;;;;;;;;;;;;;;5084239;28;19925;-67
2021/12/10 13:07:03;;;;;;;;;;;;;;;;;;5084610;28;19928;-68
2021/12/10 13:09:41;;;;;;;;;;;;;;;;;;5086049;28;19928;-69
2021/12/10 13:12:20;;;;;;;;;;;;;;;;;;5083162;28;19924;-70
2021/12/10 13:14:53;;;;;;;;;;;;;;;;;;5068462;28;19931;-70
2021/12/10 13:17:24;;;;;;;;;;;;;;;;;;5081655;28;20502;-70
2021/12/10 13:19:56;;;;;;;;;;;;;;;;;;5086228;28;19928;-70
2021/12/10 13:22:25;;;;;;;;;;;;;;;;;;5080164;28;20241;-71
2021/12/10 13:24:56;;;;;;;;;;;;;;;;;;5087487;28;19924;-70
2021/12/10 13:27:30;;;;;;;;;;;;;;;;;;5076071;28;20299;-68
2021/12/10 13:30:08;;;;;;;;;;;;;;;;;;5074649;28;19939;-70
2021/12/10 13:32:41;;;;;;;;;;;;;;;;;;5080367;28;19929;-68
2021/12/10 13:35:15;;;;;;;;;;;;;;;;;;5074684;28;19924;-69
2021/12/10 13:37:51;;;;;;;;;;;;;;;;;;5075809;28;19924;-69
2021/12/10 13:40:19;;;;;;;;;;;;;;;;;;5070134;28;19943;-70
2021/12/10 13:42:52;;;;;;;;;;;;;;;;;;5084623;28;19924;-69
2021/12/10 13:45:21;;;;;;;;;;;;;;;;;;5085450;28;19927;-69
2021/12/10 13:48:01;;;;;;;;;;;;;;;;;;5083604;28;19931;-70
2021/12/10 13:50:33;;;;;;;;;;;;;;;;;;5085614;28;20007;-67
2021/12/10 13:53:03;;;;;;;;;;;;;;;;;;5081226;28;19928;-68
2021/12/10 13:55:35;;;;;;;;;;;;;;;;;;5086461;28;20499;-66
2021/12/10 13:58:06;;;;;;;;;;;;;;;;;;5081983;28;19934;-69
2021/12/10 14:00:35;;;;;;;;;;;;;;;;;;5084934;28;19989;-67
2021/12/10 14:03:07;;;;;;;;;;;;;;;;;;5087108;28;20065;-68
2021/12/10 14:05:37;;;;;;;;;;;;;;;;;;5083620;28;19931;-69
2021/12/10 14:08:09;;;;;;;;;;;;;;;;;;5080331;28;19938;-71
2021/12/10 14:10:43;;;;;;;;;;;;;;;;;;5085825;28;19932;-73
2021/12/10 14:13:11;;;;;;;;;;;;;;;;;;5081342;28;19925;-70
2021/12/10 14:15:51;;;;;;;;;;;;;;;;;;5071589;28;19924;-70
2021/12/10 14:18:36;;;;;;;;;;;;;;;;;;5081970;28;19924;-72
2021/12/10 14:21:29;;;;;;;;;;;;;;;;;;5081133;28;19924;-70
2021/12/10 14:24:20;;;;;;;;;;;;;;;;;;5081286;28;19948;-68
2021/12/10 14:27:14;;;;;;;;;;;;;;;;;;5084906;28;19924;-68
2021/12/10 14:30:04;;;;;;;;;;;;;;;;;;5082403;28;20289;-68
2021/12/10 14:32:34;;;;;;;;;;;;;;;;;;5080699;28;19935;-68
2021/12/10 14:35:01;;;;;;;;;;;;;;;;;;5085445;28;19976;-69
2021/12/10 14:37:35;;;;;;;;;;;;;;;;;;5077024;28;19924;-68
2021/12/10 14:40:22;;;;;;;;;;;;;;;;;;5060809;28;20331;-68
2021/12/10 14:42:54;;;;;;;;;;;;;;;;;;5067227;28;19924;-68
2021/12/10 14:45:27;;;;;;;;;;;;;;;;;;5066586;28;19925;-68
2021/12/10 14:47:57;;;;;;;;;;;;;;;;;;5059306;28;19985;-68
2021/12/10 14:50:49;;;;;;;;;;;;;;;;;;5066343;28;19924;-68
2021/12/10 14:53:36;;;;;;;;;;;;;;;;;;5065174;28;19939;-68
2021/12/10 14:56:29;;;;;;;;;;;;;;;;;;5052921;28;20293;-69
2021/12/10 14:59:36;;;;;;;;;;;;;;;;;;5060375;28;19929;-68
2021/12/10 15:02:32;;;;;;;;;;;;;;;;;;5065278;28;20325;-68
2021/12/10 15:05:25;;;;;;;;;;;;;;;;;;5064889;28;19928;-68
2021/12/10 15:08:29;;;;;;;;;;;;;;;;;;5067622;28;19929;-68
2021/12/10 15:11:26;;;;;;;;;;;;;;;;;;5067056;28;19930;-68
2021/12/10 15:14:22;;;;;;;;;;;;;;;;;;5066373;28;20226;-68
2021/12/10 15:16:57;;;;;;;;;;;;;;;;;;5071872;28;19924;-69
2021/12/10 15:19:29;;;;;;;;;;;;;;;;;;5070435;28;19935;-71
2021/12/10 15:22:01;;;;;;;;;;;;;;;;;;5082091;28;19936;-67
2021/12/10 15:24:33;;;;;;;;;;;;;;;;;;5069798;28;19924;-68
2021/12/10 15:27:06;;;;;;;;;;;;;;;;;;5076978;28;21138;-67
2021/12/10 15:29:35;;;;;;;;;;;;;;;;;;5059998;28;19962;-68
2021/12/10 15:32:05;;;;;;;;;;;;;;;;;;5077641;28;19995;-68
2021/12/10 15:34:41;;;;;;;;;;;;;;;;;;5066163;28;20436;-67
2021/12/10 15:37:12;;;;;;;;;;;;;;;;;;5071361;28;19929;-67
2021/12/10 15:39:41;;;;;;;;;;;;;;;;;;5084985;28;19928;-67
2021/12/10 15:42:11;;;;;;;;;;;;;;;;;;5090808;28;19988;-68
2021/12/10 15:44:41;;;;;;;;;;;;;;;;;;5087995;28;20049;-67
2021/12/10 15:47:13;;;;;;;;;;;;;;;;;;5086045;28;19935;-67
2021/12/10 15:49:43;;;;;;;;;;;;;;;;;;5084221;28;19924;-68
2021/12/10 15:52:11;;;;;;;;;;;;;;;;;;5080181;28;19939;-68
2021/12/10 15:54:45;;;;;;;;;;;;;;;;;;5082172;28;19928;-68
2021/12/10 15:57:15;;;;;;;;;;;;;;;;;;5062943;28;19928;-68
2021/12/10 15:59:44;;;;;;;;;;;;;;;;;;5084655;28;19932;-68
2021/12/10 16:02:15;;;;;;;;;;;;;;;;;;5083032;28;20544;-68
2021/12/10 16:04:45;;;;;;;;;;;;;;;;;;5083169;28;19928;-68
2021/12/10 16:07:14;;;;;;;;;;;;;;;;;;5083079;28;19985;-67
2021/12/10 16:09:45;;;;;;;;;;;;;;;;;;5082578;28;19928;-72
2021/12/10 16:12:15;;;;;;;;;;;;;;;;;;5084216;28;19935;-68
2021/12/10 16:14:46;;;;;;;;;;;;;;;;;;5086373;28;20280;-68
2021/12/10 16:17:16;;;;;;;;;;;;;;;;;;5084955;28;19957;-68
2021/12/10 16:19:49;;;;;;;;;;;;;;;;;;5079958;28;19935;-68
2021/12/10 16:22:19;;;;;;;;;;;;;;;;;;5082749;28;19928;-68
2021/12/10 16:24:51;;;;;;;;;;;;;;;;;;5084627;28;19928;-68
2021/12/10 16:27:20;;;;;;;;;;;;;;;;;;5080563;28;19928;-67
2021/12/10 16:29:59;;;;;;;;;;;;;;;;;;5079124;28;19928;-68
2021/12/10 16:32:28;;;;;;;;;;;;;;;;;;5080179;28;19928;-67
2021/12/10 16:34:58;;;;;;;;;;;;;;;;;;5083632;28;19956;-68
2021/12/10 16:37:34;;;;;;;;;;;;;;;;;;5087502;28;20345;-75
2021/12/10 16:40:04;;;;;;;;;;;;;;;;;;5084460;28;20285;-78
2021/12/10 16:42:37;;;;;;;;;;;;;;;;;;5077613;28;19932;-78
2021/12/10 16:45:07;;;;;;;;;;;;;;;;;;5084581;28;19928;-73
2021/12/10 16:47:39;;;;;;;;;;;;;;;;;;5069797;28;19928;-76
2021/12/10 16:50:11;;;;;;;;;;;;;;;;;;5079978;28;19932;-75
2021/12/10 16:52:40;;;;;;;;;;;;;;;;;;5088597;28;20467;-70
2021/12/10 16:55:12;;;;;;;;;;;;;;;;;;5058217;28;19924;-74
2021/12/10 16:57:40;;;;;;;;;;;;;;;;;;5086129;28;19932;-75
2021/12/10 17:00:07;;;;;;;;;;;;;;;;;;5087290;28;19963;-73
2021/12/10 17:02:36;;;;;;;;;;;;;;;;;;5074731;28;19932;-75
2021/12/10 17:05:08;;;;;;;;;;;;;;;;;;5081185;28;20353;-76
2021/12/10 17:07:35;;;;;;;;;;;;;;;;;;5075094;28;20272;-73
2021/12/10 17:10:06;;;;;;;;;;;;;;;;;;5082341;28;19924;-70
2021/12/10 17:12:35;;;;;;;;;;;;;;;;;;5077826;28;19924;-70
2021/12/10 17:15:06;;;;;;;;;;;;;;;;;;5086909;28;19953;-70
2021/12/10 17:17:43;;;;;;;;;;;;;;;;;;5074371;28;19928;-70
2021/12/10 17:20:13;;;;;;;;;;;;;;;;;;5080497;28;19935;-69
2021/12/10 17:22:42;;;;;;;;;;;;;;;;;;5087785;28;19932;-69
2021/12/10 17:25:18;;;;;;;;;;;;;;;;;;5086360;28;20306;-70
2021/12/10 17:27:52;;;;;;;;;;;;;;;;;;5080389;28;19924;-69
2021/12/10 17:30:23;;;;;;;;;;;;;;;;;;5077467;28;19932;-70
2021/12/10 17:32:54;;;;;;;;;;;;;;;;;;5087343;28;19931;-70
2021/12/10 17:35:27;;;;;;;;;;;;;;;;;;5084820;28;19924;-70